Time;durP1;ratioP1;P1;durP2;ratioP2;P2;SDS_P1;SDS_P2;PMS_P1;PMS_P2;Temp;Humidity;BMP_temperature;BMP_pressure;BME280_temperature;BME280_humidity;BME280_pressure;Samples;Min_cycle;Max_cycle;Signal;HPM_P1;HPM_P2
2023/03/07 00:01:21;;;;;;;5.68;4.45;;;;;;;5.70;84.79;99698.25;3607860;39;20066;-65
2023/03/07 00:03:46;;;;;;;4.25;3.67;;;;;;;5.67;84.10;99709.09;3609696;39;20355;-67
2023/03/07 00:06:12;;;;;;;3.78;3.40;;;;;;;5.62;84.10;99695.22;3613281;39;20058;-67
2023/03/07 00:08:37;;;;;;;4.22;3.50;;;;;;;5.59;84.50;99704.25;3609735;39;20062;-65
2023/03/07 00:11:07;;;;;;;4.40;3.00;;;;;;;5.55;83.76;99696.50;3606584;39;20066;-65
2023/03/07 00:13:36;;;;;;;2.83;2.63;;;;;;;5.34;83.67;99682.66;3604567;39;20051;-66
2023/03/07 00:16:12;;;;;;;2.92;2.30;;;;;;;5.42;83.54;99696.38;3602901;39;20389;-66
2023/03/07 00:18:38;;;;;;;2.75;1.90;;;;;;;5.38;83.66;99692.19;3608275;39;20058;-66
2023/03/07 00:21:09;;;;;;;1.70;1.60;;;;;;;5.29;83.63;99674.91;3606778;39;20066;-67
2023/03/07 00:23:39;;;;;;;1.83;1.67;;;;;;;5.29;83.09;99687.38;3604816;39;20043;-67
2023/03/07 00:26:10;;;;;;;1.98;1.80;;;;;;;5.27;83.72;99682.16;3610914;39;20093;-67
2023/03/07 00:28:36;;;;;;;2.20;1.42;;;;;;;5.24;82.98;99670.84;3607694;39;20103;-68
2023/03/07 00:31:06;;;;;;;1.70;1.60;;;;;;;5.24;83.56;99677.00;3608229;39;20059;-67
2023/03/07 00:33:33;;;;;;;3.15;1.95;;;;;;;5.25;83.35;99673.38;3603339;39;20406;-68
2023/03/07 00:36:06;;;;;;;2.20;1.45;;;;;;;5.24;83.14;99669.00;3608788;39;20138;-69
2023/03/07 00:38:33;;;;;;;1.48;1.38;;;;;;;5.26;83.82;99668.91;3608729;39;20047;-69
2023/03/07 00:41:09;;;;;;;1.65;1.55;;;;;;;5.29;83.67;99669.59;3610389;39;21163;-69
2023/03/07 00:43:35;;;;;;;1.95;1.50;;;;;;;5.18;83.98;99655.19;3610431;39;20146;-69
2023/03/07 00:46:03;;;;;;;2.03;1.45;;;;;;;5.34;83.83;99666.66;3612373;39;20155;-70
2023/03/07 00:48:29;;;;;;;3.78;1.30;;;;;;;5.33;84.21;99657.81;3605932;39;20291;-69
2023/03/07 00:50:55;;;;;;;1.77;1.60;;;;;;;5.35;83.91;99653.25;3607938;39;20055;-70
2023/03/07 00:53:21;;;;;;;2.03;1.52;;;;;;;5.38;84.43;99662.88;3606094;39;20075;-70
2023/03/07 00:55:58;;;;;;;1.30;1.20;;;;;;;5.35;84.14;99660.38;3610503;39;20043;-71
2023/03/07 00:58:26;;;;;;;2.13;1.65;;;;;;;5.39;84.39;99656.56;3606213;39;20047;-73
2023/03/07 01:00:52;;;;;;;1.85;1.73;;;;;;;5.42;83.92;99652.88;3606080;39;20066;-72
2023/03/07 01:03:19;;;;;;;1.73;1.63;;;;;;;5.41;84.38;99653.84;3598985;39;20083;-72
2023/03/07 01:05:45;;;;;;;1.95;1.73;;;;;;;5.16;83.92;99599.34;3607855;39;20131;-72
2023/03/07 01:08:12;;;;;;;2.00;1.90;;;;;;;5.36;84.63;99638.13;3605782;39;20763;-72
2023/03/07 01:10:38;;;;;;;1.90;1.77;;;;;;;5.09;84.22;99582.88;3605272;39;20051;-72
2023/03/07 01:13:05;;;;;;;2.60;2.40;;;;;;;5.44;84.50;99643.00;3607232;39;20069;-71
2023/03/07 01:15:31;;;;;;;2.45;2.25;;;;;;;5.46;84.70;99641.09;3604613;39;20120;-72
2023/03/07 01:17:57;;;;;;;3.63;2.60;;;;;;;5.46;84.63;99641.09;3603825;39;20062;-72
2023/03/07 01:20:23;;;;;;;3.85;2.30;;;;;;;5.40;84.49;99628.16;3607043;39;20057;-72
2023/03/07 01:22:48;;;;;;;3.13;2.42;;;;;;;5.33;84.69;99617.84;3608452;39;20067;-71
2023/03/07 01:25:14;;;;;;;3.10;2.80;;;;;;;5.48;84.66;99632.03;3610054;39;20317;-72
2023/03/07 01:27:40;;;;;;;3.10;2.72;;;;;;;5.14;84.99;99574.63;3614345;39;20059;-72
2023/03/07 01:30:08;;;;;;;3.17;2.88;;;;;;;5.49;84.81;99627.59;3608809;39;20054;-71
2023/03/07 01:32:34;;;;;;;2.63;2.42;;;;;;;5.48;84.86;99621.38;3605139;39;20158;-71
2023/03/07 01:35:00;;;;;;;4.32;2.90;;;;;;;5.49;85.09;99614.28;3606443;39;20645;-71
2023/03/07 01:37:25;;;;;;;3.95;3.15;;;;;;;5.39;85.05;99605.09;3608152;39;20070;-71
2023/03/07 01:39:53;;;;;;;4.78;3.38;;;;;;;5.51;84.80;99615.88;3608591;39;20062;-71
2023/03/07 01:42:20;;;;;;;4.18;3.55;;;;;;;5.53;85.19;99607.81;3608783;39;20404;-71
2023/03/07 01:45:26;;;;;;;3.83;3.42;;;;;;;5.57;84.83;99612.84;3610706;39;20086;-72
2023/03/07 01:47:51;;;;;;;4.78;4.30;;;;;;;5.52;84.98;99611.44;3606548;39;20149;-72
2023/03/07 01:50:18;;;;;;;4.05;3.60;;;;;;;5.56;85.46;99602.28;3605275;39;20051;-72
2023/03/07 01:52:55;;;;;;;6.30;3.88;;;;;;;5.56;85.06;99616.47;3605069;39;20050;-72
2023/03/07 01:55:28;;;;;;;4.35;3.92;;;;;;;5.41;84.87;99584.56;3606101;39;20059;-73
2023/03/07 01:58:04;;;;;;;3.78;3.40;;;;;;;5.25;85.21;99556.16;3604537;39;20050;-73
2023/03/07 02:00:29;;;;;;;4.72;4.32;;;;;;;5.57;85.07;99594.19;3610292;39;20051;-73
2023/03/07 02:03:26;;;;;;;4.80;4.40;;;;;;;5.50;85.40;99603.50;3608372;39;20054;-74
2023/03/07 02:06:00;;;;;;;5.93;4.05;;;;;;;5.55;85.70;99601.44;3608321;39;20282;-72
2023/03/07 02:08:32;;;;;;;4.90;4.40;;;;;;;5.51;85.47;99602.53;3610975;39;20290;-73
2023/03/07 02:10:58;;;;;;;5.53;4.85;;;;;;;5.55;85.40;99595.22;3606853;39;20518;-71
2023/03/07 02:13:24;;;;;;;7.47;5.07;;;;;;;5.51;85.39;99588.38;3606997;39;20055;-72
2023/03/07 02:15:51;;;;;;;5.50;4.82;;;;;;;5.13;85.56;99538.25;3605780;39;20054;-71
2023/03/07 02:18:25;;;;;;;4.40;4.00;;;;;;;5.45;85.68;99589.59;3609175;39;20059;-73
2023/03/07 02:21:37;;;;;;;5.13;4.63;;;;;;;5.47;85.61;99586.84;3614125;39;20084;-72
2023/03/07 02:24:32;;;;;;;4.78;4.35;;;;;;;5.45;85.88;99584.25;3605557;39;20065;-71
2023/03/07 02:26:58;;;;;;;5.18;4.68;;;;;;;5.44;85.94;99582.56;3611472;39;20054;-72
2023/03/07 02:29:23;;;;;;;5.10;4.60;;;;;;;5.44;85.75;99579.88;3614796;39;20062;-71
2023/03/07 02:31:49;;;;;;;4.50;4.07;;;;;;;5.48;85.69;99580.56;3614843;39;20050;-71
2023/03/07 02:34:28;;;;;;;4.75;4.25;;;;;;;5.48;85.79;99572.56;3608166;39;20109;-71
2023/03/07 02:37:04;;;;;;;4.38;3.83;;;;;;;5.43;85.60;99569.34;3608583;39;20423;-71
2023/03/07 02:39:31;;;;;;;4.35;3.95;;;;;;;5.07;85.62;99509.31;3606808;39;20071;-71
2023/03/07 02:42:07;;;;;;;6.35;3.85;;;;;;;5.47;86.00;99565.53;3610364;39;20042;-70
2023/03/07 02:44:33;;;;;;;4.25;3.50;;;;;;;5.50;85.44;99563.53;3609341;39;20155;-71
2023/03/07 02:46:58;;;;;;;3.80;3.50;;;;;;;5.47;85.40;99557.53;3611554;39;20376;-71
2023/03/07 02:49:24;;;;;;;5.25;3.92;;;;;;;5.45;85.48;99560.28;3598185;39;20070;-71
2023/03/07 02:51:50;;;;;;;5.05;4.07;;;;;;;5.46;85.54;99563.81;3607043;39;20148;-72
2023/03/07 02:54:15;;;;;;;6.13;3.97;;;;;;;5.46;85.78;99561.16;3607751;39;20273;-72
2023/03/07 02:56:41;;;;;;;4.35;3.95;;;;;;;5.04;85.47;99488.19;3608113;39;20111;-73
2023/03/07 02:59:07;;;;;;;3.88;3.47;;;;;;;5.41;85.38;99549.91;3604019;39;20047;-72
2023/03/07 03:01:32;;;;;;;4.30;3.88;;;;;;;5.40;85.47;99553.53;3608460;39;20043;-72
2023/03/07 03:03:58;;;;;;;5.53;3.55;;;;;;;5.44;85.58;99549.72;3611875;39;20057;-73
2023/03/07 03:06:23;;;;;;;4.38;3.97;;;;;;;5.44;85.94;99560.38;3605792;39;20059;-74
2023/03/07 03:08:49;;;;;;;5.00;3.92;;;;;;;5.43;85.62;99556.00;3607930;39;20063;-72
2023/03/07 03:11:15;;;;;;;3.90;3.60;;;;;;;4.92;85.56;99473.84;3606506;39;20042;-74
2023/03/07 03:13:40;;;;;;;3.95;3.55;;;;;;;5.01;85.77;99493.72;3611521;39;20050;-74
2023/03/07 03:16:06;;;;;;;6.43;4.30;;;;;;;5.02;86.33;99495.44;3613869;39;20052;-74
2023/03/07 03:18:32;;;;;;;5.13;4.18;;;;;;;5.40;85.84;99554.38;3607195;39;20062;-74
2023/03/07 03:20:58;;;;;;;4.55;4.15;;;;;;;4.99;85.96;99492.97;3611553;39;20385;-73
2023/03/07 03:23:27;;;;;;;5.22;4.20;;;;;;;5.29;85.63;99543.50;3609391;39;20066;-72
2023/03/07 03:26:04;;;;;;;5.93;4.28;;;;;;;5.40;86.13;99553.53;3607990;39;20055;-73
2023/03/07 03:28:30;;;;;;;5.60;4.30;;;;;;;5.27;85.88;99532.97;3610980;39;20209;-73
2023/03/07 03:31:09;;;;;;;6.13;4.10;;;;;;;5.38;85.78;99550.09;3617368;39;20333;-71
2023/03/07 03:33:36;;;;;;;6.43;4.90;;;;;;;5.35;85.75;99551.97;3609215;39;20104;-72
2023/03/07 03:36:10;;;;;;;4.93;4.43;;;;;;;5.40;85.85;99554.38;3613466;39;20054;-71
2023/03/07 03:38:36;;;;;;;5.72;4.40;;;;;;;5.40;86.47;99543.72;3602406;39;20054;-72
2023/03/07 03:41:07;;;;;;;5.15;4.30;;;;;;;5.37;85.87;99546.56;3612914;39;20448;-71
2023/03/07 03:43:34;;;;;;;5.88;4.72;;;;;;;5.37;86.11;99545.72;3608582;39;20059;-71
2023/03/07 03:46:00;;;;;;;5.72;4.38;;;;;;;5.40;85.95;99542.88;3611195;39;20151;-71
2023/03/07 03:48:27;;;;;;;7.15;4.65;;;;;;;5.36;85.79;99536.88;3607034;39;20417;-70
2023/03/07 03:51:07;;;;;;;5.43;4.88;;;;;;;5.34;86.23;99533.44;3606493;39;20054;-70
2023/03/07 03:53:36;;;;;;;5.95;4.82;;;;;;;5.21;86.35;99512.03;3606088;39;20275;-71
2023/03/07 03:56:13;;;;;;;5.32;4.82;;;;;;;5.37;86.20;99525.25;3608839;39;20055;-70
2023/03/07 03:58:40;;;;;;;5.10;4.60;;;;;;;5.34;86.59;99523.63;3608857;39;20055;-70
2023/03/07 04:01:09;;;;;;;6.40;4.50;;;;;;;5.39;86.11;99514.50;3611662;39;20061;-69
2023/03/07 04:03:39;;;;;;;6.50;4.82;;;;;;;5.35;86.43;99516.50;3608554;39;20410;-69
2023/03/07 04:06:15;;;;;;;5.00;4.22;;;;;;;5.38;85.99;99510.13;3612765;39;20123;-69
2023/03/07 04:08:41;;;;;;;5.35;4.85;;;;;;;5.22;86.13;99484.41;3609235;39;20047;-69
2023/03/07 04:11:07;;;;;;;6.70;4.30;;;;;;;5.30;85.83;99495.47;3613533;39;20066;-69
2023/03/07 04:13:34;;;;;;;4.60;4.20;;;;;;;5.35;85.71;99497.84;3603070;39;20380;-70
2023/03/07 04:16:01;;;;;;;5.20;3.97;;;;;;;5.35;85.69;99498.69;3614225;39;20054;-68
2023/03/07 04:18:27;;;;;;;5.22;4.10;;;;;;;5.18;85.54;99464.25;3609540;39;20059;-68
2023/03/07 04:20:53;;;;;;;5.22;4.00;;;;;;;5.22;85.64;99470.25;3607280;39;20040;-68
2023/03/07 04:23:22;;;;;;;5.00;3.95;;;;;;;5.32;85.72;99493.56;3606016;39;20067;-68
2023/03/07 04:25:57;;;;;;;4.95;3.40;;;;;;;5.05;85.54;99442.84;3604198;39;20366;-68
2023/03/07 04:28:27;;;;;;;3.72;3.42;;;;;;;5.34;85.67;99488.16;3606944;39;20055;-69
2023/03/07 04:30:55;;;;;;;3.90;3.50;;;;;;;5.32;85.18;99485.56;3606983;39;20094;-68
2023/03/07 04:33:21;;;;;;;4.53;3.95;;;;;;;5.31;85.87;99481.19;3607169;39;20087;-69
2023/03/07 04:35:47;;;;;;;5.15;3.53;;;;;;;5.30;85.60;99482.16;3606999;39;20054;-69
2023/03/07 04:38:14;;;;;;;3.90;3.55;;;;;;;5.29;85.63;99487.56;3608286;39;20082;-68
2023/03/07 04:40:40;;;;;;;4.00;3.60;;;;;;;5.27;85.61;99469.03;3606938;39;20043;-70
2023/03/07 04:43:06;;;;;;;6.85;3.65;;;;;;;5.29;85.99;99477.75;3605487;39;20472;-68
2023/03/07 04:45:38;;;;;;;5.63;3.67;;;;;;;5.28;85.76;99464.53;3594856;39;20101;-68
2023/03/07 04:48:04;;;;;;;4.75;4.07;;;;;;;5.31;86.35;99475.88;3610461;39;20374;-68
2023/03/07 04:50:30;;;;;;;4.10;3.70;;;;;;;5.32;86.13;99466.91;3610144;39;20064;-68
2023/03/07 04:52:56;;;;;;;4.50;3.97;;;;;;;5.30;86.34;99460.84;3614444;39;20062;-68
2023/03/07 04:55:21;;;;;;;5.60;3.88;;;;;;;5.33;86.31;99463.31;3612872;39;20054;-68
2023/03/07 04:57:48;;;;;;;4.78;3.97;;;;;;;5.33;86.34;99462.47;3611459;39;20047;-67
2023/03/07 05:00:14;;;;;;;4.63;4.03;;;;;;;5.34;86.39;99459.69;3604687;39;20504;-68
2023/03/07 05:02:40;;;;;;;4.75;4.25;;;;;;;5.31;85.91;99456.34;3605710;39;20048;-68
2023/03/07 05:05:06;;;;;;;5.55;4.53;;;;;;;5.31;85.73;99459.88;3604642;39;20109;-67
2023/03/07 05:07:32;;;;;;;6.13;4.43;;;;;;;5.31;86.02;99461.69;3605319;39;20051;-68
2023/03/07 05:09:58;;;;;;;5.50;4.22;;;;;;;5.30;85.96;99458.16;3610874;39;20051;-68
2023/03/07 05:12:24;;;;;;;4.88;4.13;;;;;;;5.31;85.75;99453.69;3608349;39;20057;-68
2023/03/07 05:14:50;;;;;;;4.43;3.90;;;;;;;5.31;86.04;99448.38;3611306;39;20043;-67
2023/03/07 05:17:16;;;;;;;7.00;4.03;;;;;;;5.29;86.12;99450.25;3610651;39;20079;-67
2023/03/07 05:19:42;;;;;;;7.32;4.80;;;;;;;5.32;86.81;99448.25;3609670;39;20059;-68
2023/03/07 05:22:08;;;;;;;5.75;4.38;;;;;;;5.25;86.27;99444.28;3605336;39;20362;-67
2023/03/07 05:24:34;;;;;;;5.50;4.28;;;;;;;5.32;85.81;99445.59;3605587;39;20044;-67
2023/03/07 05:27:00;;;;;;;7.45;4.68;;;;;;;5.32;86.09;99442.06;3609123;39;20104;-67
2023/03/07 05:29:26;;;;;;;8.77;4.80;;;;;;;5.33;85.80;99433.16;3610482;39;20062;-67
2023/03/07 05:31:51;;;;;;;4.45;4.00;;;;;;;5.23;85.46;99413.34;3608324;39;20058;-66
2023/03/07 05:34:17;;;;;;;4.85;4.18;;;;;;;5.33;85.12;99423.34;3606402;39;20695;-66
2023/03/07 05:36:43;;;;;;;5.55;4.13;;;;;;;5.32;85.63;99418.94;3607242;39;20066;-66
2023/03/07 05:39:09;;;;;;;6.45;4.65;;;;;;;5.32;86.14;99426.94;3606930;39;20059;-65
2023/03/07 05:41:35;;;;;;;6.15;4.45;;;;;;;5.27;86.38;99413.06;3606136;39;20071;-65
2023/03/07 05:44:02;;;;;;;6.75;4.60;;;;;;;5.34;86.17;99422.38;3610019;39;20062;-66
2023/03/07 05:46:28;;;;;;;5.40;4.60;;;;;;;5.35;85.90;99428.56;3611104;39;20139;-66
2023/03/07 05:48:54;;;;;;;6.32;4.60;;;;;;;5.37;86.36;99431.16;3609276;39;20390;-66
2023/03/07 05:51:20;;;;;;;6.30;4.78;;;;;;;5.35;86.48;99426.75;3607999;39;20158;-66
2023/03/07 05:53:45;;;;;;;6.53;4.82;;;;;;;5.29;86.45;99405.81;3608998;39;20055;-66
2023/03/07 05:56:11;;;;;;;7.55;5.50;;;;;;;5.37;86.12;99418.69;3608999;39;20412;-66
2023/03/07 05:58:37;;;;;;;8.88;5.47;;;;;;;5.35;85.85;99421.41;3609436;39;20070;-65
2023/03/07 06:01:04;;;;;;;6.78;5.75;;;;;;;5.32;86.35;99418.94;3609230;39;20046;-66
2023/03/07 06:03:30;;;;;;;7.00;5.72;;;;;;;5.36;86.20;99411.66;3608288;39;20055;-66
2023/03/07 06:05:56;;;;;;;8.00;5.78;;;;;;;5.33;86.41;99409.19;3611084;39;20660;-66
2023/03/07 06:08:22;;;;;;;5.47;4.93;;;;;;;5.25;85.92;99406.97;3609590;39;20127;-66
2023/03/07 06:10:50;;;;;;;6.68;6.05;;;;;;;5.33;85.94;99418.03;3608048;39;20055;-66
2023/03/07 06:13:22;;;;;;;6.97;5.65;;;;;;;5.31;86.35;99417.25;3606060;39;20314;-66
2023/03/07 06:15:52;;;;;;;6.57;5.15;;;;;;;5.35;86.36;99424.09;3608161;39;20086;-66
2023/03/07 06:18:19;;;;;;;6.05;5.10;;;;;;;5.32;85.81;99420.75;3606743;39;20055;-66
2023/03/07 06:20:56;;;;;;;6.70;5.05;;;;;;;5.28;85.54;99417.44;3608776;39;20083;-66
2023/03/07 06:23:22;;;;;;;6.95;5.00;;;;;;;5.27;86.16;99414.88;3606387;39;20043;-66
2023/03/07 06:25:47;;;;;;;6.15;4.70;;;;;;;5.26;85.56;99413.16;3611070;39;20301;-66
2023/03/07 06:28:13;;;;;;;5.53;4.03;;;;;;;5.21;85.47;99421.44;3608385;39;20050;-65
2023/03/07 06:30:38;;;;;;;4.82;4.43;;;;;;;5.19;85.46;99420.69;3611630;39;20054;-66
2023/03/07 06:33:04;;;;;;;5.57;4.13;;;;;;;5.19;85.85;99431.31;3608236;39;20050;-64
2023/03/07 06:35:29;;;;;;;4.78;4.32;;;;;;;5.09;85.30;99432.84;3606256;39;20047;-66
2023/03/07 06:37:55;;;;;;;4.55;3.88;;;;;;;5.07;85.38;99437.41;3607216;39;20055;-66
2023/03/07 06:40:21;;;;;;;5.32;3.90;;;;;;;5.01;85.22;99429.78;3607078;39;20135;-66
2023/03/07 06:42:46;;;;;;;4.15;3.60;;;;;;;4.90;84.60;99433.13;3608754;39;20052;-65
2023/03/07 06:45:12;;;;;;;4.32;2.90;;;;;;;4.79;83.83;99430.25;3609923;39;20370;-65
2023/03/07 06:47:38;;;;;;;3.80;3.40;;;;;;;4.02;83.34;99320.44;3609423;39;20066;-65
2023/03/07 06:50:04;;;;;;;5.18;3.78;;;;;;;4.60;83.61;99420.72;3608947;39;20051;-64
2023/03/07 06:52:29;;;;;;;5.90;4.00;;;;;;;4.54;83.48;99425.56;3614638;39;20262;-65
2023/03/07 06:54:55;;;;;;;4.30;3.50;;;;;;;4.46;83.10;99431.31;3608017;39;20050;-65
2023/03/07 06:57:21;;;;;;;3.60;3.30;;;;;;;4.38;82.98;99434.44;3605501;39;20062;-65
2023/03/07 06:59:46;;;;;;;5.13;3.53;;;;;;;4.34;83.30;99438.22;3608601;39;20057;-64
2023/03/07 07:02:13;;;;;;;6.05;3.97;;;;;;;4.29;83.65;99442.13;3608629;39;20054;-64
2023/03/07 07:04:39;;;;;;;5.32;3.72;;;;;;;4.27;83.34;99439.53;3605859;39;20055;-63
2023/03/07 07:07:06;;;;;;;4.95;3.70;;;;;;;4.16;83.48;99439.31;3607601;39;20074;-63
2023/03/07 07:09:32;;;;;;;4.03;3.20;;;;;;;4.12;83.58;99440.41;3606552;39;20123;-64
2023/03/07 07:11:58;;;;;;;3.83;3.28;;;;;;;4.03;82.86;99440.94;3608485;39;20062;-64
2023/03/07 07:14:24;;;;;;;5.47;3.45;;;;;;;4.00;83.49;99442.00;3607916;39;20273;-63
2023/03/07 07:16:49;;;;;;;4.30;3.40;;;;;;;3.92;83.70;99439.75;3604663;39;20090;-63
2023/03/07 07:19:15;;;;;;;6.40;3.63;;;;;;;3.89;84.03;99439.06;3609235;39;20360;-64
2023/03/07 07:21:41;;;;;;;4.43;3.83;;;;;;;3.83;83.61;99434.94;3604437;39;20066;-64
2023/03/07 07:24:11;;;;;;;5.85;3.88;;;;;;;3.81;83.46;99442.16;3596283;39;20054;-64
2023/03/07 07:26:37;;;;;;;4.50;4.03;;;;;;;3.77;82.94;99435.28;3609497;39;20261;-64
2023/03/07 07:29:03;;;;;;;5.00;3.85;;;;;;;3.70;83.03;99440.09;3609229;39;20059;-64
2023/03/07 07:31:29;;;;;;;5.35;4.20;;;;;;;3.68;83.38;99442.00;3608372;39;20499;-63
2023/03/07 07:33:54;;;;;;;5.85;4.53;;;;;;;3.65;83.57;99433.34;3607584;39;20059;-63
2023/03/07 07:36:22;;;;;;;4.40;3.97;;;;;;;3.65;83.40;99459.91;3607753;39;20070;-64
2023/03/07 07:38:48;;;;;;;6.38;4.45;;;;;;;3.60;83.18;99469.94;3609322;39;20163;-65
2023/03/07 07:41:14;;;;;;;5.65;4.50;;;;;;;3.56;83.67;99477.22;3605351;39;21312;-67
2023/03/07 07:43:40;;;;;;;5.07;4.53;;;;;;;3.54;83.67;99475.59;3606288;39;20151;-64
2023/03/07 07:46:06;;;;;;;6.03;4.15;;;;;;;3.31;83.19;99448.47;3608717;39;20051;-64
2023/03/07 07:48:32;;;;;;;5.35;4.43;;;;;;;3.37;83.98;99481.81;3608865;39;20303;-64
2023/03/07 07:51:02;;;;;;;6.10;5.00;;;;;;;3.35;83.44;99492.50;3611710;39;20058;-64
2023/03/07 07:53:29;;;;;;;5.68;4.53;;;;;;;3.27;83.01;99502.69;3611854;39;20059;-64
2023/03/07 07:55:56;;;;;;;5.45;4.43;;;;;;;3.23;83.06;99498.47;3607651;39;20557;-63
2023/03/07 07:58:21;;;;;;;6.25;4.65;;;;;;;3.19;83.56;99491.63;3606237;39;20054;-64
2023/03/07 08:00:47;;;;;;;8.43;5.18;;;;;;;3.19;83.58;99481.00;3608144;39;20051;-64
2023/03/07 08:03:12;;;;;;;5.68;4.65;;;;;;;3.16;84.57;99473.19;3612242;39;20233;-64
2023/03/07 08:05:44;;;;;;;6.10;5.00;;;;;;;3.17;83.79;99481.09;3607858;39;20388;-65
2023/03/07 08:08:10;;;;;;;6.55;5.43;;;;;;;3.23;84.57;99485.19;3608253;39;20389;-64
2023/03/07 08:10:35;;;;;;;5.53;5.00;;;;;;;3.27;84.00;99494.72;3613527;39;20042;-64
2023/03/07 08:13:02;;;;;;;7.57;5.45;;;;;;;3.28;84.70;99491.13;3607763;39;20065;-64
2023/03/07 08:15:27;;;;;;;5.95;4.97;;;;;;;3.35;85.58;99495.16;3604068;39;20148;-64
2023/03/07 08:17:53;;;;;;;7.80;5.00;;;;;;;3.32;84.88;99497.97;3605513;39;20059;-64
2023/03/07 08:20:21;;;;;;;8.05;5.45;;;;;;;3.38;84.94;99512.75;3599303;39;20059;-65
2023/03/07 08:22:49;;;;;;;6.13;5.35;;;;;;;3.34;84.22;99501.44;3605583;39;20043;-65
2023/03/07 08:25:21;;;;;;;8.32;5.93;;;;;;;3.39;84.43;99510.00;3604485;39;20063;-66
2023/03/07 08:27:51;;;;;;;6.53;5.25;;;;;;;3.24;84.32;99506.38;3603834;39;20059;-65
2023/03/07 08:30:18;;;;;;;7.63;5.10;;;;;;;3.37;84.42;99517.19;3605974;39;20111;-65
2023/03/07 08:32:43;;;;;;;8.30;6.13;;;;;;;3.42;84.84;99515.13;3606074;39;20055;-65
2023/03/07 08:35:09;;;;;;;7.65;6.28;;;;;;;3.44;85.00;99518.59;3604945;39;20107;-66
2023/03/07 08:37:34;;;;;;;7.38;6.18;;;;;;;3.48;84.40;99519.28;3598166;39;20312;-66
2023/03/07 08:40:00;;;;;;;8.55;6.18;;;;;;;3.28;84.85;99474.34;3607278;39;20094;-66
2023/03/07 08:42:26;;;;;;;7.47;5.60;;;;;;;3.51;84.52;99523.56;3602246;39;20404;-67
2023/03/07 08:44:51;;;;;;;7.95;6.15;;;;;;;3.56;85.00;99510.91;3603571;39;20067;-66
2023/03/07 08:47:17;;;;;;;8.05;6.18;;;;;;;3.61;84.45;99516.81;3606011;39;20058;-66
2023/03/07 08:49:42;;;;;;;8.32;5.80;;;;;;;3.61;83.90;99520.31;3608189;39;20302;-66
2023/03/07 08:52:08;;;;;;;6.75;5.53;;;;;;;3.64;83.58;99514.00;3606596;39;20050;-66
2023/03/07 08:54:34;;;;;;;6.32;5.60;;;;;;;3.65;83.77;99518.38;3605744;39;20170;-67
2023/03/07 08:56:59;;;;;;;6.50;5.68;;;;;;;3.70;83.55;99521.63;3606379;39;20058;-66
2023/03/07 08:59:25;;;;;;;6.03;5.43;;;;;;;3.69;83.73;99517.25;3605070;39;20065;-66
2023/03/07 09:01:51;;;;;;;8.30;7.00;;;;;;;3.69;83.67;99510.16;3608645;39;20062;-66
2023/03/07 09:04:16;;;;;;;6.45;5.72;;;;;;;3.72;83.32;99517.09;3610041;39;20043;-67
2023/03/07 09:06:42;;;;;;;7.63;6.15;;;;;;;3.72;83.32;99506.47;3610686;39;20043;-67
2023/03/07 09:09:08;;;;;;;7.72;6.60;;;;;;;3.71;82.18;99510.03;3610588;39;20047;-67
2023/03/07 09:11:33;;;;;;;8.35;7.03;;;;;;;3.71;83.01;99510.94;3608659;39;20061;-67
2023/03/07 09:13:59;;;;;;;7.65;6.85;;;;;;;3.72;83.19;99514.44;3608894;39;20056;-67
2023/03/07 09:16:24;;;;;;;7.82;7.03;;;;;;;3.73;83.17;99513.50;3608879;39;20054;-67
2023/03/07 09:18:50;;;;;;;7.95;7.07;;;;;;;3.71;82.34;99521.56;3608262;39;20050;-67
2023/03/07 09:21:16;;;;;;;10.60;8.52;;;;;;;3.74;83.34;99525.81;3609401;39;20420;-67
2023/03/07 09:23:42;;;;;;;10.68;8.60;;;;;;;3.75;83.47;99518.72;3607297;39;20062;-67
2023/03/07 09:26:09;;;;;;;10.65;8.57;;;;;;;3.74;82.93;99528.47;3607773;39;20043;-68
2023/03/07 09:28:35;;;;;;;10.38;8.52;;;;;;;3.72;82.90;99533.03;3610578;39;20530;-68
2023/03/07 09:31:08;;;;;;;10.30;8.50;;;;;;;3.69;82.81;99539.38;3608990;39;20058;-68
2023/03/07 09:33:35;;;;;;;11.68;8.65;;;;;;;2.97;82.60;99434.34;3598768;39;20258;-69
2023/03/07 09:36:11;;;;;;;9.07;8.10;;;;;;;3.60;82.65;99545.19;3611288;39;20086;-68
2023/03/07 09:38:37;;;;;;;10.32;8.30;;;;;;;3.67;84.31;99543.06;3610305;39;20072;-68
2023/03/07 09:41:32;;;;;;;9.93;8.77;;;;;;;3.64;83.50;99538.75;3608672;39;20047;-68
2023/03/07 09:44:00;;;;;;;10.60;9.18;;;;;;;3.70;83.95;99535.75;3610810;39;20063;-69
2023/03/07 09:47:09;;;;;;;10.50;8.52;;;;;;;3.75;84.03;99532.88;3606918;39;20063;-68
2023/03/07 09:49:48;;;;;;;10.52;8.40;;;;;;;3.75;83.38;99538.19;3611154;39;20309;-68
2023/03/07 09:52:27;;;;;;;11.38;8.98;;;;;;;3.79;83.92;99538.88;3608581;39;20380;-69
2023/03/07 09:54:59;;;;;;;9.93;8.10;;;;;;;3.84;83.70;99531.53;3609293;39;20136;-69
2023/03/07 09:57:31;;;;;;;9.98;8.23;;;;;;;3.89;83.38;99535.63;3608738;39;20118;-69
2023/03/07 10:00:33;;;;;;;9.40;8.07;;;;;;;3.90;82.88;99532.03;3606178;39;20410;-68
2023/03/07 10:03:26;;;;;;;9.15;7.35;;;;;;;3.93;82.87;99536.31;3607888;39;20128;-69
2023/03/07 10:06:00;;;;;;;9.40;7.63;;;;;;;3.97;82.55;99539.69;3608978;39;20059;-70
2023/03/07 10:08:33;;;;;;;10.00;7.88;;;;;;;3.66;82.71;99485.53;3607318;39;20063;-70
2023/03/07 10:11:08;;;;;;;8.95;7.50;;;;;;;4.02;82.24;99529.63;3608979;39;20051;-69
2023/03/07 10:14:17;;;;;;;9.25;7.68;;;;;;;4.04;82.14;99543.69;3609235;39;20055;-70
2023/03/07 10:16:50;;;;;;;10.40;7.47;;;;;;;4.04;82.30;99539.25;3573463;39;20062;-70
2023/03/07 10:19:40;;;;;;;7.63;6.83;;;;;;;4.00;82.25;99542.16;3604052;39;20313;-70
2023/03/07 10:22:42;;;;;;;8.48;7.07;;;;;;;4.02;82.11;99537.59;3606694;39;20390;-70
2023/03/07 10:25:26;;;;;;;7.93;6.78;;;;;;;4.03;81.63;99541.97;3608393;39;20372;-70
2023/03/07 10:28:23;;;;;;;7.00;5.78;;;;;;;3.54;81.70;99462.28;3606927;39;20062;-71
2023/03/07 10:31:19;;;;;;;6.38;5.50;;;;;;;4.00;81.86;99539.50;3606593;39;20103;-70
2023/03/07 10:33:49;;;;;;;6.30;5.18;;;;;;;3.92;81.45;99538.09;3607997;39;20051;-70
2023/03/07 10:36:21;;;;;;;7.68;5.35;;;;;;;3.85;80.99;99536.75;3608842;39;20108;-71
2023/03/07 10:39:15;;;;;;;6.13;5.43;;;;;;;3.88;82.31;99543.69;3607036;39;20055;-70
2023/03/07 10:41:40;;;;;;;6.72;5.45;;;;;;;3.84;81.42;99534.19;3606217;39;20552;-71
2023/03/07 10:44:18;;;;;;;7.82;5.93;;;;;;;3.83;82.41;99530.63;3607158;39;20059;-70
2023/03/07 10:46:45;;;;;;;6.28;5.30;;;;;;;3.92;82.52;99535.44;3607641;39;20047;-70
2023/03/07 10:49:19;;;;;;;5.78;4.95;;;;;;;3.96;81.86;99533.47;3604350;39;20087;-71
2023/03/07 10:52:05;;;;;;;6.15;5.10;;;;;;;3.95;81.91;99540.59;3610834;39;20096;-71
2023/03/07 10:54:37;;;;;;;5.22;4.65;;;;;;;3.94;82.33;99530.91;3608194;39;20055;-71
2023/03/07 10:57:15;;;;;;;5.28;4.57;;;;;;;3.54;82.46;99443.69;3599064;39;20062;-71
2023/03/07 10:59:48;;;;;;;5.70;4.70;;;;;;;4.10;82.35;99544.22;3592346;39;20300;-71
2023/03/07 11:02:43;;;;;;;5.47;4.45;;;;;;;4.13;81.79;99538.72;3606310;39;20378;-70
2023/03/07 11:05:34;;;;;;;6.30;4.43;;;;;;;3.87;81.92;99489.69;3607505;39;20379;-71
2023/03/07 11:08:35;;;;;;;5.13;4.63;;;;;;;4.16;82.62;99545.69;3609433;39;20066;-71
2023/03/07 11:11:03;;;;;;;5.47;4.60;;;;;;;4.14;82.44;99523.63;3608603;39;20104;-70
2023/03/07 11:13:30;;;;;;;5.53;4.75;;;;;;;4.16;82.20;99519.09;3608193;39;20054;-70
2023/03/07 11:16:20;;;;;;;5.85;4.53;;;;;;;4.33;82.90;99532.28;3607335;39;20051;-70
2023/03/07 11:18:46;;;;;;;4.85;4.35;;;;;;;4.33;82.79;99526.94;3608953;39;20416;-71
2023/03/07 11:21:33;;;;;;;4.72;4.18;;;;;;;4.43;82.02;99540.59;3605446;39;20084;-71
2023/03/07 11:24:35;;;;;;;4.50;4.10;;;;;;;4.43;82.23;99525.47;3608136;39;20315;-71
2023/03/07 11:27:00;;;;;;;4.25;3.85;;;;;;;4.54;81.52;99537.31;3608506;39;20057;-70
2023/03/07 11:29:32;;;;;;;4.60;4.18;;;;;;;4.63;81.31;99536.75;3605512;39;20654;-71
2023/03/07 11:32:22;;;;;;;5.00;4.50;;;;;;;4.73;81.83;99532.66;3598854;39;20379;-70
2023/03/07 11:35:12;;;;;;;5.10;4.60;;;;;;;4.87;82.05;99540.66;3606477;39;20064;-71
2023/03/07 11:38:06;;;;;;;4.30;3.90;;;;;;;4.92;81.64;99534.22;3608378;39;20061;-70
2023/03/07 11:40:48;;;;;;;;;;;;;;;4.93;79.79;99535.94;3608267;39;20071;-71
2023/03/07 11:43:49;;;;;;;3.72;3.22;;;;;;;4.92;80.57;99539.56;3605881;39;19939;-70
2023/03/07 11:46:55;;;;;;;5.43;3.63;;;;;;;4.95;80.53;99531.34;3607666;39;20061;-70
2023/03/07 11:49:50;;;;;;;4.78;4.13;;;;;;;5.07;81.64;99534.16;3605643;39;20063;-70
2023/03/07 11:52:49;;;;;;;4.40;4.00;;;;;;;5.06;80.33;99527.09;3606550;39;20055;-70
2023/03/07 11:55:36;;;;;;;4.13;3.72;;;;;;;5.04;79.62;99531.69;3606792;39;20055;-70
2023/03/07 11:58:20;;;;;;;4.53;3.88;;;;;;;5.10;79.88;99525.13;3605964;39;20382;-70